sensor_id;sensor_type;location;lat;lon;timestamp;pressure;altitude;pressure_sealevel;temperature;humidity
63881;BME280;50046;46.672;11.152;2022-11-18T00:00:01;96644.66;;;7.77;77.32
63881;BME280;50046;46.672;11.152;2022-11-18T00:00:12;96648.16;;;7.77;77.13
63881;BME280;50046;46.672;11.152;2022-11-18T00:00:22;96647.34;;;7.77;76.71
63881;BME280;50046;46.672;11.152;2022-11-18T00:00:33;96643.63;;;7.73;76.56
63881;BME280;50046;46.672;11.152;2022-11-18T00:00:43;96650.06;;;7.72;76.72
63881;BME280;50046;46.672;11.152;2022-11-18T00:00:54;96649.00;;;7.73;77.29
63881;BME280;50046;46.672;11.152;2022-11-18T00:01:16;96643.09;;;7.71;77.01
63881;BME280;50046;46.672;11.152;2022-11-18T00:01:27;96646.56;;;7.71;76.79
63881;BME280;50046;46.672;11.152;2022-11-18T00:01:38;96645.75;;;7.76;76.66
63881;BME280;50046;46.672;11.152;2022-11-18T00:01:48;96647.38;;;7.72;76.41
63881;BME280;50046;46.672;11.152;2022-11-18T00:01:58;96642.53;;;7.74;76.68
63881;BME280;50046;46.672;11.152;2022-11-18T00:02:09;96641.72;;;7.73;76.46
63881;BME280;50046;46.672;11.152;2022-11-18T00:02:19;96644.44;;;7.73;76.60
63881;BME280;50046;46.672;11.152;2022-11-18T00:02:29;96642.53;;;7.74;76.42
63881;BME280;50046;46.672;11.152;2022-11-18T00:02:40;96642.81;;;7.72;76.46
63881;BME280;50046;46.672;11.152;2022-11-18T00:02:50;96640.41;;;7.71;76.52
63881;BME280;50046;46.672;11.152;2022-11-18T00:03:00;96634.50;;;7.69;76.68
63881;BME280;50046;46.672;11.152;2022-11-18T00:03:11;96645.78;;;7.71;76.91
63881;BME280;50046;46.672;11.152;2022-11-18T00:03:23;96639.09;;;7.68;76.72
63881;BME280;50046;46.672;11.152;2022-11-18T00:03:34;96639.88;;;7.69;76.74
63881;BME280;50046;46.672;11.152;2022-11-18T00:03:44;96640.97;;;7.68;76.86
63881;BME280;50046;46.672;11.152;2022-11-18T00:03:55;96641.22;;;7.66;76.85
63881;BME280;50046;46.672;11.152;2022-11-18T00:04:05;96638.81;;;7.70;76.87
63881;BME280;50046;46.672;11.152;2022-11-18T00:04:16;96637.72;;;7.71;76.97
63881;BME280;50046;46.672;11.152;2022-11-18T00:04:26;96638.53;;;7.71;76.82
63881;BME280;50046;46.672;11.152;2022-11-18T00:04:36;96638.78;;;7.75;77.04
63881;BME280;50046;46.672;11.152;2022-11-18T00:04:47;96640.66;;;7.74;76.65
63881;BME280;50046;46.672;11.152;2022-11-18T00:04:57;96637.97;;;7.74;76.63
63881;BME280;50046;46.672;11.152;2022-11-18T00:05:08;96632.03;;;7.77;76.67
63881;BME280;50046;46.672;11.152;2022-11-18T00:05:18;96635.00;;;7.76;76.72
63881;BME280;50046;46.672;11.152;2022-11-18T00:05:28;96638.78;;;7.75;76.58
63881;BME280;50046;46.672;11.152;2022-11-18T00:05:39;96639.06;;;7.73;76.68
63881;BME280;50046;46.672;11.152;2022-11-18T00:05:56;96640.69;;;7.69;76.31
63881;BME280;50046;46.672;11.152;2022-11-18T00:06:10;96636.13;;;7.70;76.65
63881;BME280;50046;46.672;11.152;2022-11-18T00:06:23;96637.19;;;7.69;76.57
63881;BME280;50046;46.672;11.152;2022-11-18T00:06:34;96629.94;;;7.69;76.88
63881;BME280;50046;46.672;11.152;2022-11-18T00:06:44;96639.09;;;7.68;76.74
63881;BME280;50046;46.672;11.152;2022-11-18T00:06:54;96635.31;;;7.69;76.83
63881;BME280;50046;46.672;11.152;2022-11-18T00:07:05;96633.72;;;7.68;76.74
63881;BME280;50046;46.672;11.152;2022-11-18T00:07:15;96636.66;;;7.67;76.93
63881;BME280;50046;46.672;11.152;2022-11-18T00:07:25;96632.91;;;7.68;76.50
63881;BME280;50046;46.672;11.152;2022-11-18T00:07:36;96640.19;;;7.67;76.85
63881;BME280;50046;46.672;11.152;2022-11-18T00:07:46;96628.59;;;7.67;77.22
63881;BME280;50046;46.672;11.152;2022-11-18T00:07:56;96636.97;;;7.65;76.99
63881;BME280;50046;46.672;11.152;2022-11-18T00:08:07;96629.97;;;7.64;76.87
63881;BME280;50046;46.672;11.152;2022-11-18T00:08:17;96639.66;;;7.65;77.16
63881;BME280;50046;46.672;11.152;2022-11-18T00:08:28;96631.59;;;7.65;77.05
63881;BME280;50046;46.672;11.152;2022-11-18T00:08:38;96634.28;;;7.65;77.02
63881;BME280;50046;46.672;11.152;2022-11-18T00:08:49;96638.56;;;7.66;76.87
63881;BME280;50046;46.672;11.152;2022-11-18T00:08:59;96628.91;;;7.65;76.98
63881;BME280;50046;46.672;11.152;2022-11-18T00:09:10;96637.50;;;7.67;76.81
63881;BME280;50046;46.672;11.152;2022-11-18T00:09:20;96634.47;;;7.74;76.75
63881;BME280;50046;46.672;11.152;2022-11-18T00:09:31;96635.81;;;7.76;76.58
63881;BME280;50046;46.672;11.152;2022-11-18T00:09:41;96640.38;;;7.76;76.58
63881;BME280;50046;46.672;11.152;2022-11-18T00:09:51;96635.56;;;7.73;76.58
63881;BME280;50046;46.672;11.152;2022-11-18T00:10:02;96637.47;;;7.72;76.42
63881;BME280;50046;46.672;11.152;2022-11-18T00:10:12;96638.81;;;7.70;76.57
63881;BME280;50046;46.672;11.152;2022-11-18T00:10:23;96637.19;;;7.69;76.49
63881;BME280;50046;46.672;11.152;2022-11-18T00:10:37;96637.19;;;7.69;76.60
63881;BME280;50046;46.672;11.152;2022-11-18T00:10:47;96639.88;;;7.69;76.73
63881;BME280;50046;46.672;11.152;2022-11-18T00:10:57;96633.72;;;7.68;76.89
63881;BME280;50046;46.672;11.152;2022-11-18T00:11:13;96631.28;;;7.67;76.58
63881;BME280;50046;46.672;11.152;2022-11-18T00:11:46;96637.72;;;7.71;76.58
63881;BME280;50046;46.672;11.152;2022-11-18T00:12:15;96632.63;;;7.69;76.55
63881;BME280;50046;46.672;11.152;2022-11-18T00:12:44;96635.06;;;7.66;76.42
63881;BME280;50046;46.672;11.152;2022-11-18T00:13:13;96649.03;;;7.68;76.58
63881;BME280;50046;46.672;11.152;2022-11-18T00:13:42;96641.50;;;7.70;76.65
63881;BME280;50046;46.672;11.152;2022-11-18T00:14:17;96639.88;;;7.69;76.66
63881;BME280;50046;46.672;11.152;2022-11-18T00:14:28;96643.91;;;7.71;76.77
63881;BME280;50046;46.672;11.152;2022-11-18T00:14:38;96638.81;;;7.70;76.45
63881;BME280;50046;46.672;11.152;2022-11-18T00:14:49;96649.56;;;7.70;76.38
63881;BME280;50046;46.672;11.152;2022-11-18T00:14:59;96649.56;;;7.70;76.31
63881;BME280;50046;46.672;11.152;2022-11-18T00:15:09;96648.50;;;7.66;76.33
63881;BME280;50046;46.672;11.152;2022-11-18T00:15:20;96652.47;;;7.73;76.52
63881;BME280;50046;46.672;11.152;2022-11-18T00:15:30;96653.28;;;7.74;75.99
63881;BME280;50046;46.672;11.152;2022-11-18T00:15:41;96653.28;;;7.74;76.12
63881;BME280;50046;46.672;11.152;2022-11-18T00:15:59;96652.25;;;7.70;76.32
63881;BME280;50046;46.672;11.152;2022-11-18T00:16:11;96649.03;;;7.68;76.35
63881;BME280;50046;46.672;11.152;2022-11-18T00:16:22;96656.53;;;7.71;76.27
63881;BME280;50046;46.672;11.152;2022-11-18T00:16:33;96651.38;;;7.74;75.78
63881;BME280;50046;46.672;11.152;2022-11-18T00:16:50;96651.69;;;7.73;75.93
63881;BME280;50046;46.672;11.152;2022-11-18T00:17:03;96656.75;;;7.74;76.00
63881;BME280;50046;46.672;11.152;2022-11-18T00:17:14;96661.88;;;7.76;76.01
63881;BME280;50046;46.672;11.152;2022-11-18T00:17:25;96657.59;;;7.75;76.04
63881;BME280;50046;46.672;11.152;2022-11-18T00:17:35;96658.38;;;7.75;76.08
63881;BME280;50046;46.672;11.152;2022-11-18T00:17:45;96664.03;;;7.74;75.61
63881;BME280;50046;46.672;11.152;2022-11-18T00:17:56;96661.34;;;7.74;75.80
63881;BME280;50046;46.672;11.152;2022-11-18T00:18:06;96661.06;;;7.75;75.88
63881;BME280;50046;46.672;11.152;2022-11-18T00:18:16;96655.41;;;7.77;75.79
63881;BME280;50046;46.672;11.152;2022-11-18T00:18:27;96653.78;;;7.81;75.81
63881;BME280;50046;46.672;11.152;2022-11-18T00:18:37;96658.34;;;7.80;75.30
63881;BME280;50046;46.672;11.152;2022-11-18T00:18:48;96655.94;;;7.79;75.23
63881;BME280;50046;46.672;11.152;2022-11-18T00:18:59;96661.84;;;7.81;75.54
63881;BME280;50046;46.672;11.152;2022-11-18T00:19:09;96658.34;;;7.80;75.54
63881;BME280;50046;46.672;11.152;2022-11-18T00:19:22;96655.66;;;7.80;75.48
63881;BME280;50046;46.672;11.152;2022-11-18T00:19:35;96660.25;;;7.80;75.68
63881;BME280;50046;46.672;11.152;2022-11-18T00:19:46;96657.78;;;7.83;75.45
63881;BME280;50046;46.672;11.152;2022-11-18T00:19:56;96659.38;;;7.84;75.53
63881;BME280;50046;46.672;11.152;2022-11-18T00:20:07;96659.38;;;7.84;75.44
63881;BME280;50046;46.672;11.152;2022-11-18T00:20:17;96661.56;;;7.82;75.09
63881;BME280;50046;46.672;11.152;2022-11-18T00:20:28;96655.38;;;7.82;75.32
63881;BME280;50046;46.672;11.152;2022-11-18T00:20:38;96659.94;;;7.81;75.25
63881;BME280;50046;46.672;11.152;2022-11-18T00:20:48;96658.59;;;7.84;75.03
63881;BME280;50046;46.672;11.152;2022-11-18T00:21:00;96657.00;;;7.83;75.21
63881;BME280;50046;46.672;11.152;2022-11-18T00:21:11;96654.84;;;7.85;75.01
63881;BME280;50046;46.672;11.152;2022-11-18T00:21:22;96657.78;;;7.83;74.68
63881;BME280;50046;46.672;11.152;2022-11-18T00:21:32;96658.88;;;7.82;74.69
63881;BME280;50046;46.672;11.152;2022-11-18T00:21:42;96663.44;;;7.82;74.44
63881;BME280;50046;46.672;11.152;2022-11-18T00:21:53;96656.19;;;7.82;74.35
63881;BME280;50046;46.672;11.152;2022-11-18T00:22:05;96656.47;;;7.81;74.53
63881;BME280;50046;46.672;11.152;2022-11-18T00:22:16;96657.56;;;7.80;74.39
63881;BME280;50046;46.672;11.152;2022-11-18T00:22:26;96659.94;;;7.81;74.44
63881;BME280;50046;46.672;11.152;2022-11-18T00:22:36;96653.22;;;7.84;74.27
63881;BME280;50046;46.672;11.152;2022-11-18T00:22:47;96657.25;;;7.81;74.25
63881;BME280;50046;46.672;11.152;2022-11-18T00:22:57;96659.16;;;7.81;74.07
63881;BME280;50046;46.672;11.152;2022-11-18T00:23:08;96659.94;;;7.81;74.21
63881;BME280;50046;46.672;11.152;2022-11-18T00:23:18;96655.66;;;7.80;74.40
63881;BME280;50046;46.672;11.152;2022-11-18T00:23:29;96663.19;;;7.78;74.45
63881;BME280;50046;46.672;11.152;2022-11-18T00:23:39;96658.34;;;7.80;74.28
63881;BME280;50046;46.672;11.152;2022-11-18T00:23:50;96649.50;;;7.80;74.27
63881;BME280;50046;46.672;11.152;2022-11-18T00:24:00;96656.72;;;7.79;74.38
63881;BME280;50046;46.672;11.152;2022-11-18T00:24:10;96661.31;;;7.79;74.29
63881;BME280;50046;46.672;11.152;2022-11-18T00:24:21;96658.09;;;7.77;74.34
63881;BME280;50046;46.672;11.152;2022-11-18T00:24:32;96657.81;;;7.78;73.97
63881;BME280;50046;46.672;11.152;2022-11-18T00:24:42;96659.41;;;7.79;74.35
63881;BME280;50046;46.672;11.152;2022-11-18T00:24:53;96665.63;;;7.80;74.15
63881;BME280;50046;46.672;11.152;2022-11-18T00:25:03;96656.72;;;7.79;74.19
63881;BME280;50046;46.672;11.152;2022-11-18T00:25:13;96664.00;;;7.79;74.48
63881;BME280;50046;46.672;11.152;2022-11-18T00:25:24;96661.31;;;7.79;74.19
63881;BME280;50046;46.672;11.152;2022-11-18T00:25:35;96659.72;;;7.78;74.25
63881;BME280;50046;46.672;11.152;2022-11-18T00:25:45;96662.94;;;7.80;74.44
63881;BME280;50046;46.672;11.152;2022-11-18T00:26:02;96664.78;;;7.79;74.30
63881;BME280;50046;46.672;11.152;2022-11-18T00:26:13;96661.56;;;7.82;74.35
63881;BME280;50046;46.672;11.152;2022-11-18T00:26:23;96661.56;;;7.82;74.09
63881;BME280;50046;46.672;11.152;2022-11-18T00:26:34;96662.91;;;7.85;74.24
63881;BME280;50046;46.672;11.152;2022-11-18T00:26:45;96663.16;;;7.83;74.03
63881;BME280;50046;46.672;11.152;2022-11-18T00:26:56;96668.53;;;7.83;74.06
63881;BME280;50046;46.672;11.152;2022-11-18T00:27:06;96658.59;;;7.84;74.16
63881;BME280;50046;46.672;11.152;2022-11-18T00:27:17;96668.28;;;7.85;74.39
63881;BME280;50046;46.672;11.152;2022-11-18T00:27:30;96665.28;;;7.87;74.20
63881;BME280;50046;46.672;11.152;2022-11-18T00:27:41;96662.34;;;7.88;74.15
63881;BME280;50046;46.672;11.152;2022-11-18T00:27:52;96662.34;;;7.88;74.20
63881;BME280;50046;46.672;11.152;2022-11-18T00:28:03;96671.47;;;7.87;73.93
63881;BME280;50046;46.672;11.152;2022-11-18T00:28:14;96670.94;;;7.90;74.15
63881;BME280;50046;46.672;11.152;2022-11-18T00:28:24;96672.00;;;7.89;74.25
63881;BME280;50046;46.672;11.152;2022-11-18T00:28:35;96663.94;;;7.89;74.09
63881;BME280;50046;46.672;11.152;2022-11-18T00:28:45;96670.41;;;7.88;73.90
63881;BME280;50046;46.672;11.152;2022-11-18T00:28:55;96674.97;;;7.88;74.25
63881;BME280;50046;46.672;11.152;2022-11-18T00:29:08;96668.78;;;7.87;74.11
63881;BME280;50046;46.672;11.152;2022-11-18T00:29:19;96674.97;;;7.88;74.14
63881;BME280;50046;46.672;11.152;2022-11-18T00:29:30;96672.56;;;7.86;74.05
63881;BME280;50046;46.672;11.152;2022-11-18T00:29:40;96672.00;;;7.89;74.01
63881;BME280;50046;46.672;11.152;2022-11-18T00:29:52;96675.78;;;7.88;73.90
63881;BME280;50046;46.672;11.152;2022-11-18T00:30:02;96676.84;;;7.87;73.83
63881;BME280;50046;46.672;11.152;2022-11-18T00:30:13;96676.03;;;7.87;73.83
63881;BME280;50046;46.672;11.152;2022-11-18T00:30:23;96674.44;;;7.86;73.72
63881;BME280;50046;46.672;11.152;2022-11-18T00:30:34;96679.03;;;7.85;73.89
63881;BME280;50046;46.672;11.152;2022-11-18T00:30:44;96672.81;;;7.84;73.76
63881;BME280;50046;46.672;11.152;2022-11-18T00:31:02;96675.50;;;7.84;73.51
63881;BME280;50046;46.672;11.152;2022-11-18T00:31:13;96675.25;;;7.86;73.84
63881;BME280;50046;46.672;11.152;2022-11-18T00:31:23;96677.13;;;7.86;73.59
63881;BME280;50046;46.672;11.152;2022-11-18T00:31:34;96674.44;;;7.86;73.97
63881;BME280;50046;46.672;11.152;2022-11-18T00:31:44;96674.72;;;7.84;73.86
63881;BME280;50046;46.672;11.152;2022-11-18T00:31:55;96672.53;;;7.91;73.58
63881;BME280;50046;46.672;11.152;2022-11-18T00:32:06;96671.16;;;7.94;73.12
63881;BME280;50046;46.672;11.152;2022-11-18T00:32:16;96670.34;;;7.98;73.14
63881;BME280;50046;46.672;11.152;2022-11-18T00:32:27;96671.94;;;7.99;73.08
63881;BME280;50046;46.672;11.152;2022-11-18T00:32:37;96667.59;;;8.03;73.21
63881;BME280;50046;46.672;11.152;2022-11-18T00:32:47;96673.56;;;8.00;73.08
63881;BME280;50046;46.672;11.152;2022-11-18T00:32:58;96665.97;;;8.02;73.07
63881;BME280;50046;46.672;11.152;2022-11-18T00:33:08;96668.19;;;8.00;73.00
63881;BME280;50046;46.672;11.152;2022-11-18T00:33:18;96658.78;;;7.98;72.99
63881;BME280;50046;46.672;11.152;2022-11-18T00:33:29;96657.16;;;7.97;73.16
63881;BME280;50046;46.672;11.152;2022-11-18T00:33:40;96659.06;;;7.96;73.15
63881;BME280;50046;46.672;11.152;2022-11-18T00:33:50;96660.66;;;7.97;73.11
63881;BME280;50046;46.672;11.152;2022-11-18T00:34:00;96655.56;;;7.96;72.87
63881;BME280;50046;46.672;11.152;2022-11-18T00:34:13;96661.75;;;7.96;73.48
63881;BME280;50046;46.672;11.152;2022-11-18T00:34:24;96661.22;;;7.94;73.32
63881;BME280;50046;46.672;11.152;2022-11-18T00:34:35;96660.16;;;7.95;73.39
63881;BME280;50046;46.672;11.152;2022-11-18T00:34:45;96657.16;;;7.97;73.32
63881;BME280;50046;46.672;11.152;2022-11-18T00:34:56;96654.47;;;7.97;73.07
63881;BME280;50046;46.672;11.152;2022-11-18T00:35:06;96650.19;;;7.96;73.24
63881;BME280;50046;46.672;11.152;2022-11-18T00:35:17;96658.50;;;7.99;73.35
63881;BME280;50046;46.672;11.152;2022-11-18T00:35:27;96653.06;;;8.04;73.15
63881;BME280;50046;46.672;11.152;2022-11-18T00:35:37;96646.09;;;8.03;73.16
63881;BME280;50046;46.672;11.152;2022-11-18T00:35:54;96650.19;;;7.96;73.09
63881;BME280;50046;46.672;11.152;2022-11-18T00:36:06;96646.41;;;7.97;73.07
63881;BME280;50046;46.672;11.152;2022-11-18T00:36:17;96645.03;;;7.99;72.74
63881;BME280;50046;46.672;11.152;2022-11-18T00:36:28;96641.28;;;8.00;72.69
63881;BME280;50046;46.672;11.152;2022-11-18T00:36:39;96637.28;;;7.98;72.72
63881;BME280;50046;46.672;11.152;2022-11-18T00:36:50;96634.34;;;7.94;72.89
63881;BME280;50046;46.672;11.152;2022-11-18T00:37:00;96634.34;;;7.94;72.78
63881;BME280;50046;46.672;11.152;2022-11-18T00:37:11;96633.53;;;7.94;72.91
63881;BME280;50046;46.672;11.152;2022-11-18T00:37:21;96633.53;;;7.94;73.23
63881;BME280;50046;46.672;11.152;2022-11-18T00:37:32;96636.22;;;7.94;73.01
63881;BME280;50046;46.672;11.152;2022-11-18T00:37:42;96623.06;;;7.92;73.25
63881;BME280;50046;46.672;11.152;2022-11-18T00:37:53;96628.44;;;7.92;73.08
63881;BME280;50046;46.672;11.152;2022-11-18T00:38:03;96624.16;;;7.91;73.11
63881;BME280;50046;46.672;11.152;2022-11-18T00:38:13;96627.63;;;7.92;73.26
63881;BME280;50046;46.672;11.152;2022-11-18T00:38:25;96622.50;;;7.95;73.06
63881;BME280;50046;46.672;11.152;2022-11-18T00:38:36;96628.44;;;7.92;73.19
63881;BME280;50046;46.672;11.152;2022-11-18T00:38:46;96626.56;;;7.93;73.41
63881;BME280;50046;46.672;11.152;2022-11-18T00:38:57;96621.19;;;7.93;73.36
63881;BME280;50046;46.672;11.152;2022-11-18T00:39:09;96616.09;;;7.91;73.49
63881;BME280;50046;46.672;11.152;2022-11-18T00:39:20;96621.47;;;7.91;73.18
63881;BME280;50046;46.672;11.152;2022-11-18T00:39:30;96614.50;;;7.90;73.31
63881;BME280;50046;46.672;11.152;2022-11-18T00:39:41;96613.97;;;7.88;73.28
63881;BME280;50046;46.672;11.152;2022-11-18T00:39:51;96611.28;;;7.88;73.11
63881;BME280;50046;46.672;11.152;2022-11-18T00:40:02;96615.31;;;7.86;73.36
63881;BME280;50046;46.672;11.152;2022-11-18T00:40:12;96614.22;;;7.87;73.67
63881;BME280;50046;46.672;11.152;2022-11-18T00:40:23;96613.44;;;7.86;73.55
63881;BME280;50046;46.672;11.152;2022-11-18T00:40:34;96610.75;;;7.86;73.46
63881;BME280;50046;46.672;11.152;2022-11-18T00:40:45;96611.53;;;7.87;73.69
63881;BME280;50046;46.672;11.152;2022-11-18T00:40:59;96607.50;;;7.89;73.58
63881;BME280;50046;46.672;11.152;2022-11-18T00:41:12;96615.56;;;7.89;73.57
63881;BME280;50046;46.672;11.152;2022-11-18T00:41:23;96613.41;;;7.91;73.41
63881;BME280;50046;46.672;11.152;2022-11-18T00:41:34;96615.28;;;7.91;73.76
63881;BME280;50046;46.672;11.152;2022-11-18T00:42:03;96609.56;;;7.97;73.05
63881;BME280;50046;46.672;11.152;2022-11-18T00:42:32;96610.34;;;8.03;72.75
63881;BME280;50046;46.672;11.152;2022-11-18T00:43:00;96612.53;;;8.01;72.42
63881;BME280;50046;46.672;11.152;2022-11-18T00:43:11;96610.09;;;7.99;72.59
63881;BME280;50046;46.672;11.152;2022-11-18T00:43:21;96607.41;;;7.99;72.62
63881;BME280;50046;46.672;11.152;2022-11-18T00:43:32;96605.81;;;7.98;72.59
63881;BME280;50046;46.672;11.152;2022-11-18T00:43:42;96606.63;;;7.99;72.78
63881;BME280;50046;46.672;11.152;2022-11-18T00:43:53;96607.72;;;7.98;72.94
63881;BME280;50046;46.672;11.152;2022-11-18T00:44:03;96607.41;;;7.99;72.76
63881;BME280;50046;46.672;11.152;2022-11-18T00:44:14;96607.41;;;7.99;72.84
63881;BME280;50046;46.672;11.152;2022-11-18T00:44:25;96598.81;;;7.97;72.73
63881;BME280;50046;46.672;11.152;2022-11-18T00:44:35;96603.94;;;7.99;72.75
63881;BME280;50046;46.672;11.152;2022-11-18T00:44:46;96605.81;;;7.98;72.84
63881;BME280;50046;46.672;11.152;2022-11-18T00:44:56;96603.41;;;7.97;72.83
63881;BME280;50046;46.672;11.152;2022-11-18T00:45:06;96601.81;;;7.96;73.09
63881;BME280;50046;46.672;11.152;2022-11-18T00:45:18;96599.91;;;7.96;72.72
63881;BME280;50046;46.672;11.152;2022-11-18T00:45:32;96606.34;;;8.00;72.90
63881;BME280;50046;46.672;11.152;2022-11-18T00:45:42;96600.44;;;7.98;72.76
63881;BME280;50046;46.672;11.152;2022-11-18T00:45:53;96598.81;;;7.97;73.03
63881;BME280;50046;46.672;11.152;2022-11-18T00:46:04;96598.50;;;8.04;72.80
63881;BME280;50046;46.672;11.152;2022-11-18T00:46:14;96596.34;;;8.06;72.78
63881;BME280;50046;46.672;11.152;2022-11-18T00:46:25;96595.81;;;8.04;72.44
63881;BME280;50046;46.672;11.152;2022-11-18T00:46:35;96603.88;;;8.04;72.83
63881;BME280;50046;46.672;11.152;2022-11-18T00:46:46;96597.97;;;8.02;73.03
63881;BME280;50046;46.672;11.152;2022-11-18T00:46:56;96599.09;;;8.01;72.90
63881;BME280;50046;46.672;11.152;2022-11-18T00:47:07;96599.88;;;8.01;73.02
63881;BME280;50046;46.672;11.152;2022-11-18T00:47:17;96599.34;;;7.99;73.09
63881;BME280;50046;46.672;11.152;2022-11-18T00:47:27;96603.94;;;7.99;73.19
63881;BME280;50046;46.672;11.152;2022-11-18T00:47:37;96598.81;;;7.97;73.24
63881;BME280;50046;46.672;11.152;2022-11-18T00:47:48;96605.81;;;7.98;73.07
63881;BME280;50046;46.672;11.152;2022-11-18T00:47:58;96601.25;;;7.99;73.28
63881;BME280;50046;46.672;11.152;2022-11-18T00:48:09;96606.34;;;8.00;73.32
63881;BME280;50046;46.672;11.152;2022-11-18T00:48:19;96609.03;;;8.00;73.11
63881;BME280;50046;46.672;11.152;2022-11-18T00:48:31;96600.16;;;8.00;72.60
63881;BME280;50046;46.672;11.152;2022-11-18T00:48:41;96601.50;;;7.97;72.81
63881;BME280;50046;46.672;11.152;2022-11-18T00:48:52;96598.81;;;7.97;72.61
63881;BME280;50046;46.672;11.152;2022-11-18T00:49:02;96597.22;;;7.96;72.87
63881;BME280;50046;46.672;11.152;2022-11-18T00:49:12;96605.56;;;7.95;73.04
63881;BME280;50046;46.672;11.152;2022-11-18T00:49:23;96602.38;;;7.93;73.20
63881;BME280;50046;46.672;11.152;2022-11-18T00:49:33;96598.88;;;7.92;73.20
63881;BME280;50046;46.672;11.152;2022-11-18T00:49:44;96609.63;;;7.92;72.96
63881;BME280;50046;46.672;11.152;2022-11-18T00:49:54;96602.91;;;7.90;73.07
63881;BME280;50046;46.672;11.152;2022-11-18T00:50:05;96607.22;;;7.91;73.30
63881;BME280;50046;46.672;11.152;2022-11-18T00:50:15;96603.75;;;7.90;73.17
63881;BME280;50046;46.672;11.152;2022-11-18T00:50:26;96605.34;;;7.91;73.21
63881;BME280;50046;46.672;11.152;2022-11-18T00:50:36;96608.81;;;7.92;72.90
63881;BME280;50046;46.672;11.152;2022-11-18T00:50:50;96605.34;;;7.91;73.13
63881;BME280;50046;46.672;11.152;2022-11-18T00:51:10;96606.66;;;7.94;73.13
63881;BME280;50046;46.672;11.152;2022-11-18T00:51:21;96602.66;;;7.91;72.77
63881;BME280;50046;46.672;11.152;2022-11-18T00:51:31;96608.03;;;7.91;72.86
63881;BME280;50046;46.672;11.152;2022-11-18T00:51:41;96607.22;;;7.91;73.05
63881;BME280;50046;46.672;11.152;2022-11-18T00:51:52;96606.34;;;8.00;72.79
63881;BME280;50046;46.672;11.152;2022-11-18T00:52:02;96608.22;;;8.00;72.58
63881;BME280;50046;46.672;11.152;2022-11-18T00:52:13;96602.28;;;8.03;72.29
63881;BME280;50046;46.672;11.152;2022-11-18T00:52:23;96601.47;;;8.02;72.37
63881;BME280;50046;46.672;11.152;2022-11-18T00:52:33;96602.00;;;8.04;72.49
63881;BME280;50046;46.672;11.152;2022-11-18T00:52:44;96599.31;;;8.04;72.49
63881;BME280;50046;46.672;11.152;2022-11-18T00:52:54;96608.69;;;8.07;72.28
63881;BME280;50046;46.672;11.152;2022-11-18T00:53:04;96611.94;;;8.04;72.00
63881;BME280;50046;46.672;11.152;2022-11-18T00:53:16;96608.75;;;8.02;72.08
63881;BME280;50046;46.672;11.152;2022-11-18T00:53:26;96602.56;;;8.01;72.48
63881;BME280;50046;46.672;11.152;2022-11-18T00:53:37;96606.34;;;8.00;72.38
63881;BME280;50046;46.672;11.152;2022-11-18T00:53:47;96605.81;;;7.98;72.64
63881;BME280;50046;46.672;11.152;2022-11-18T00:53:57;96605.81;;;7.98;72.67
63881;BME280;50046;46.672;11.152;2022-11-18T00:54:08;96607.41;;;7.99;72.55
63881;BME280;50046;46.672;11.152;2022-11-18T00:54:19;96608.50;;;7.98;72.59
63881;BME280;50046;46.672;11.152;2022-11-18T00:54:30;96602.84;;;8.00;72.68
63881;BME280;50046;46.672;11.152;2022-11-18T00:54:40;96612.00;;;7.99;72.50
63881;BME280;50046;46.672;11.152;2022-11-18T00:54:50;96605.81;;;7.98;72.52
63881;BME280;50046;46.672;11.152;2022-11-18T00:55:01;96611.47;;;7.97;72.55
63881;BME280;50046;46.672;11.152;2022-11-18T00:55:11;96609.56;;;7.97;72.65
63881;BME280;50046;46.672;11.152;2022-11-18T00:55:24;96620.31;;;7.97;72.65
63881;BME280;50046;46.672;11.152;2022-11-18T00:55:35;96612.78;;;7.99;72.95
63881;BME280;50046;46.672;11.152;2022-11-18T00:55:45;96607.41;;;7.99;72.91
63881;BME280;50046;46.672;11.152;2022-11-18T00:55:55;96612.00;;;7.99;72.85
63881;BME280;50046;46.672;11.152;2022-11-18T00:56:06;96610.41;;;7.98;72.49
63881;BME280;50046;46.672;11.152;2022-11-18T00:56:17;96609.56;;;7.97;72.82
63881;BME280;50046;46.672;11.152;2022-11-18T00:56:27;96610.13;;;7.94;72.50
63881;BME280;50046;46.672;11.152;2022-11-18T00:56:38;96608.25;;;7.95;73.10
63881;BME280;50046;46.672;11.152;2022-11-18T00:56:48;96612.81;;;7.94;73.06
63881;BME280;50046;46.672;11.152;2022-11-18T00:56:59;96609.63;;;7.92;72.95
63881;BME280;50046;46.672;11.152;2022-11-18T00:57:09;96607.75;;;7.93;72.89
63881;BME280;50046;46.672;11.152;2022-11-18T00:57:20;96606.94;;;7.92;72.72
63881;BME280;50046;46.672;11.152;2022-11-18T00:57:30;96609.91;;;7.91;72.94
63881;BME280;50046;46.672;11.152;2022-11-18T00:57:40;96614.19;;;7.92;72.96
63881;BME280;50046;46.672;11.152;2022-11-18T00:57:51;96610.97;;;7.90;73.17
63881;BME280;50046;46.672;11.152;2022-11-18T00:58:02;96611.81;;;7.90;72.98
63881;BME280;50046;46.672;11.152;2022-11-18T00:58:12;96611.50;;;7.92;73.04
63881;BME280;50046;46.672;11.152;2022-11-18T00:58:23;96613.94;;;7.93;72.89
63881;BME280;50046;46.672;11.152;2022-11-18T00:58:34;96611.81;;;7.90;73.04
63881;BME280;50046;46.672;11.152;2022-11-18T00:58:45;96610.97;;;7.90;73.15
63881;BME280;50046;46.672;11.152;2022-11-18T00:58:55;96617.44;;;7.89;73.18
63881;BME280;50046;46.672;11.152;2022-11-18T00:59:05;96617.19;;;7.90;73.33
63881;BME280;50046;46.672;11.152;2022-11-18T00:59:16;96612.59;;;7.91;73.23
63881;BME280;50046;46.672;11.152;2022-11-18T00:59:26;96617.63;;;7.97;73.21
63881;BME280;50046;46.672;11.152;2022-11-18T00:59:36;96614.41;;;8.00;73.17
63881;BME280;50046;46.672;11.152;2022-11-18T00:59:47;96616.56;;;7.98;73.03
63881;BME280;50046;46.672;11.152;2022-11-18T00:59:57;96617.63;;;7.97;73.12
63881;BME280;50046;46.672;11.152;2022-11-18T01:00:08;96619.25;;;7.98;73.29
63881;BME280;50046;46.672;11.152;2022-11-18T01:00:19;96618.97;;;8.00;73.37
63881;BME280;50046;46.672;11.152;2022-11-18T01:00:29;96614.94;;;7.97;73.20